createdAt,value
2023-04-18T00:00:26.899Z,0.75
2023-04-18T00:03:15.964Z,5.78
2023-04-18T00:06:02.414Z,0.50
2023-04-18T00:08:48.430Z,0.32
2023-04-18T00:11:35.087Z,0.30
2023-04-18T00:14:23.169Z,0.68
2023-04-18T00:17:09.123Z,2.42
2023-04-18T00:19:56.502Z,0.73
2023-04-18T00:22:46.708Z,0.30
2023-04-18T00:25:33.455Z,0.60
2023-04-18T00:28:19.851Z,0.55
2023-04-18T00:31:08.240Z,0.30
2023-04-18T00:33:54.259Z,0.30
2023-04-18T00:36:43.064Z,0.32
2023-04-18T00:39:29.268Z,0.60
2023-04-18T00:42:15.238Z,0.30
2023-04-18T00:45:01.495Z,0.77
2023-04-18T00:47:47.873Z,0.30
2023-04-18T00:50:34.005Z,0.30
2023-04-18T00:53:21.831Z,0.88
2023-04-18T00:56:08.078Z,0.35
2023-04-18T00:58:54.594Z,1.05
2023-04-18T01:01:40.600Z,0.40
2023-04-18T01:04:27.480Z,0.50
2023-04-18T01:07:13.555Z,0.40
2023-04-18T01:10:00.538Z,0.32
2023-04-18T01:12:46.556Z,1.23
2023-04-18T01:15:33.543Z,0.60
2023-04-18T01:18:20.940Z,0.60
2023-04-18T01:21:07.587Z,0.75
2023-04-18T01:23:53.778Z,0.30
2023-04-18T01:26:40.113Z,1.38
2023-04-18T01:29:26.823Z,0.40
2023-04-18T01:32:12.734Z,0.40
2023-04-18T01:34:58.878Z,1.88
2023-04-18T01:37:46.104Z,0.40
2023-04-18T01:40:32.239Z,0.40
2023-04-18T01:43:19.487Z,0.30
2023-04-18T01:46:05.803Z,0.60
2023-04-18T01:48:51.865Z,0.40
2023-04-18T01:51:39.641Z,0.30
2023-04-18T01:54:25.932Z,0.40
2023-04-18T01:57:12.090Z,0.73
2023-04-18T01:59:58.361Z,0.30
2023-04-18T02:02:44.673Z,0.40
2023-04-18T02:05:30.639Z,0.63
2023-04-18T02:08:18.913Z,0.40
2023-04-18T02:11:05.589Z,0.90
2023-04-18T02:13:52.564Z,1.13
2023-04-18T02:16:38.990Z,0.40
2023-04-18T02:19:25.586Z,0.40
2023-04-18T02:22:11.818Z,0.60
2023-04-18T02:24:58.110Z,0.70
2023-04-18T02:27:44.640Z,0.80
2023-04-18T02:30:30.949Z,0.50
2023-04-18T02:33:17.429Z,0.30
2023-04-18T02:36:04.436Z,0.32
2023-04-18T02:38:50.648Z,0.73
2023-04-18T02:41:40.309Z,0.77
2023-04-18T02:44:26.779Z,0.30
2023-04-18T02:47:13.950Z,3.65
2023-04-18T02:50:05.841Z,0.40
2023-04-18T02:52:52.504Z,0.40
2023-04-18T02:55:40.195Z,0.30
2023-04-18T02:58:26.763Z,0.60
2023-04-18T03:01:13.030Z,0.40
2023-04-18T03:04:29.190Z,0.30
2023-04-18T03:07:18.824Z,0.95
2023-04-18T03:10:05.646Z,0.70
2023-04-18T03:12:54.703Z,0.82
2023-04-18T03:15:40.989Z,0.40
2023-04-18T03:18:28.076Z,0.40
2023-04-18T03:21:17.035Z,0.40
2023-04-18T03:24:03.698Z,0.40
2023-04-18T03:26:51.598Z,0.60
2023-04-18T03:29:41.125Z,0.50
2023-04-18T03:32:27.877Z,0.30
2023-04-18T03:35:14.164Z,0.40
2023-04-18T03:38:00.517Z,0.50
2023-04-18T03:40:49.946Z,0.32
2023-04-18T03:43:43.192Z,0.40
2023-04-18T03:46:29.791Z,1.35
2023-04-18T03:49:17.236Z,0.50
2023-04-18T03:52:03.425Z,0.50
2023-04-18T03:54:49.673Z,0.45
2023-04-18T03:57:37.785Z,1.00
2023-04-18T04:00:27.643Z,1.58
2023-04-18T04:03:38.929Z,2.47
2023-04-18T04:06:26.415Z,0.50
2023-04-18T04:09:13.190Z,0.50
2023-04-18T04:11:59.284Z,0.50
2023-04-18T04:14:46.683Z,0.75
2023-04-18T04:17:32.799Z,0.43
2023-04-18T04:20:24.193Z,0.45
2023-04-18T04:23:16.365Z,0.50
2023-04-18T04:26:05.040Z,0.50
2023-04-18T04:29:05.297Z,0.40
2023-04-18T04:31:53.181Z,0.80
2023-04-18T04:34:50.979Z,1.75
2023-04-18T04:37:38.776Z,0.47
2023-04-18T04:40:37.717Z,0.40
2023-04-18T04:43:28.885Z,0.60
2023-04-18T04:46:16.115Z,1.10
2023-04-18T04:49:02.546Z,0.43
2023-04-18T04:51:49.304Z,0.88
2023-04-18T04:54:35.528Z,0.50
2023-04-18T04:57:23.515Z,0.50
2023-04-18T05:00:10.215Z,0.40
2023-04-18T05:03:00.154Z,0.40
2023-04-18T05:05:47.309Z,0.40
2023-04-18T05:08:33.352Z,0.43
2023-04-18T05:11:19.688Z,1.10
2023-04-18T05:14:05.840Z,0.40
2023-04-18T05:16:52.097Z,1.52
2023-04-18T05:19:38.457Z,1.00
2023-04-18T05:22:24.593Z,0.93
2023-04-18T05:25:10.884Z,0.73
2023-04-18T05:27:58.026Z,0.50
2023-04-18T05:30:44.842Z,0.50
2023-04-18T05:33:31.572Z,0.40
2023-04-18T05:36:17.305Z,1.48
2023-04-18T05:39:04.285Z,0.40
2023-04-18T05:41:50.394Z,0.43
2023-04-18T05:44:37.013Z,0.40
2023-04-18T05:47:26.852Z,0.35
2023-04-18T05:50:12.859Z,0.50
2023-04-18T05:52:59.450Z,0.50
2023-04-18T05:55:46.640Z,0.70
2023-04-18T05:58:32.553Z,0.50
2023-04-18T06:01:19.054Z,2.17
2023-04-18T06:04:08.699Z,0.40
2023-04-18T06:06:54.892Z,0.43
2023-04-18T06:09:41.194Z,0.43
2023-04-18T06:12:27.384Z,0.47
2023-04-18T06:15:13.563Z,0.40
2023-04-18T06:17:59.838Z,0.45
2023-04-18T06:20:46.286Z,0.40
2023-04-18T06:23:32.564Z,0.98
2023-04-18T06:26:18.856Z,0.40
2023-04-18T06:29:05.015Z,1.27
2023-04-18T06:31:52.302Z,0.50
2023-04-18T06:34:38.490Z,0.40
2023-04-18T06:37:24.562Z,0.93
2023-04-18T06:40:12.178Z,1.33
2023-04-18T06:43:17.136Z,0.50
2023-04-18T06:46:05.143Z,0.40
2023-04-18T06:48:51.597Z,0.40
2023-04-18T06:51:37.626Z,0.47
2023-04-18T06:54:23.783Z,0.70
2023-04-18T06:57:09.849Z,0.40
2023-04-18T06:59:56.357Z,1.77
2023-04-18T07:02:42.543Z,0.40
2023-04-18T07:05:28.584Z,0.40
2023-04-18T07:08:15.013Z,0.63
2023-04-18T07:11:01.097Z,0.60
2023-04-18T07:13:49.011Z,3.42
2023-04-18T07:16:35.002Z,0.40
2023-04-18T07:19:21.039Z,1.27
2023-04-18T07:22:07.241Z,1.65
2023-04-18T07:24:53.535Z,0.30
2023-04-18T07:27:39.739Z,1.35
2023-04-18T07:30:26.447Z,0.40
2023-04-18T07:33:12.639Z,2.83
2023-04-18T07:35:58.931Z,0.30
2023-04-18T07:38:45.175Z,1.80
2023-04-18T07:41:31.456Z,4.82
2023-04-18T07:44:18.378Z,1.17
2023-04-18T07:47:04.551Z,0.47
2023-04-18T07:49:50.944Z,0.82
2023-04-18T07:52:38.189Z,0.47
2023-04-18T07:55:25.410Z,7.78
2023-04-18T07:58:11.671Z,1.58
2023-04-18T08:00:57.743Z,3.97
2023-04-18T08:03:44.596Z,0.75
2023-04-18T08:06:30.950Z,0.30
2023-04-18T08:09:17.217Z,0.40
2023-04-18T08:12:03.646Z,0.30
2023-04-18T08:14:49.422Z,0.50
2023-04-18T08:17:36.122Z,2.75
2023-04-18T08:20:22.179Z,0.40
2023-04-18T08:23:11.123Z,0.40
2023-04-18T08:25:58.847Z,3.10
2023-04-18T08:28:47.842Z,1.58
2023-04-18T08:31:33.836Z,0.50
2023-04-18T08:34:20.036Z,3.08
2023-04-18T08:37:07.390Z,1.73
2023-04-18T08:39:53.658Z,0.40
2023-04-18T08:42:42.403Z,0.30
2023-04-18T08:45:29.765Z,0.80
2023-04-18T08:48:16.825Z,0.30
2023-04-18T08:51:05.310Z,0.73
2023-04-18T08:53:51.518Z,0.88
2023-04-18T08:56:37.850Z,1.30
2023-04-18T08:59:25.771Z,0.40
2023-04-18T09:02:16.643Z,0.20
2023-04-18T09:05:10.239Z,9.52
2023-04-18T09:07:56.868Z,0.30
2023-04-18T09:10:46.478Z,1.65
2023-04-18T09:13:47.566Z,2.05
2023-04-18T09:16:47.065Z,0.45
2023-04-18T09:19:34.035Z,0.73
2023-04-18T09:22:20.033Z,0.40
2023-04-18T09:25:08.550Z,1.63
2023-04-18T09:27:54.536Z,3.40
2023-04-18T09:30:42.283Z,0.30
2023-04-18T09:33:34.221Z,0.85
2023-04-18T09:40:21.293Z,0.43
2023-04-18T09:43:20.592Z,0.30
2023-04-18T09:46:07.523Z,0.40
2023-04-18T09:48:53.749Z,0.70
2023-04-18T09:51:41.619Z,0.30
2023-04-18T09:54:29.445Z,0.40
2023-04-18T09:57:16.695Z,0.35
2023-04-18T10:00:20.532Z,0.40
2023-04-18T10:06:11.874Z,0.40
2023-04-18T10:08:58.090Z,0.30
2023-04-18T10:11:44.602Z,0.30
2023-04-18T10:14:33.083Z,0.50
2023-04-18T10:17:20.048Z,13.35
2023-04-18T10:20:10.222Z,0.40
2023-04-18T10:22:57.296Z,0.82
2023-04-18T10:25:50.053Z,0.30
2023-04-18T10:28:53.479Z,0.38
2023-04-18T10:31:40.247Z,0.30
2023-04-18T10:34:26.593Z,1.42
2023-04-18T10:37:15.813Z,0.90
2023-04-18T10:40:10.876Z,0.65
2023-04-18T10:42:57.268Z,0.40
2023-04-18T10:45:43.398Z,0.30
2023-04-18T10:48:30.269Z,1.10
2023-04-18T10:51:17.989Z,1.98
2023-04-18T10:54:05.132Z,1.05
2023-04-18T10:56:54.950Z,0.93
2023-04-18T10:59:51.546Z,2.28
2023-04-18T11:02:39.252Z,0.40
2023-04-18T11:05:28.149Z,0.35
2023-04-18T11:08:23.982Z,1.95
2023-04-18T11:11:13.023Z,1.25
2023-04-18T11:13:59.612Z,2.00
2023-04-18T11:16:45.823Z,0.40
2023-04-18T11:19:32.580Z,0.45
2023-04-18T11:22:19.156Z,1.00
2023-04-18T11:25:08.632Z,0.90
2023-04-18T11:27:57.463Z,0.80
2023-04-18T11:30:43.536Z,1.13
2023-04-18T11:33:29.945Z,1.15
2023-04-18T11:36:15.950Z,1.23
2023-04-18T11:39:02.174Z,0.80
2023-04-18T11:41:51.448Z,1.58
2023-04-18T11:44:41.112Z,1.15
2023-04-18T11:48:01.470Z,0.63
2023-04-18T11:50:47.917Z,1.67
2023-04-18T11:53:38.308Z,1.42
2023-04-18T11:56:24.565Z,1.27
2023-04-18T11:59:10.969Z,2.17
2023-04-18T12:02:14.815Z,3.30
2023-04-18T12:05:02.589Z,2.42
2023-04-18T12:07:49.018Z,2.35
2023-04-18T12:10:36.234Z,1.40
2023-04-18T12:13:31.453Z,0.85
2023-04-18T12:16:18.212Z,2.38
2023-04-18T12:19:06.379Z,2.47
2023-04-18T12:22:10.920Z,4.03
2023-04-18T12:25:24.324Z,1.00
2023-04-18T12:28:16.585Z,1.40
2023-04-18T12:31:02.888Z,1.20
2023-04-18T12:33:50.634Z,2.47
2023-04-18T12:36:36.794Z,0.20
2023-04-18T12:39:22.836Z,0.30
2023-04-18T12:42:09.151Z,1.80
2023-04-18T12:44:56.008Z,1.25
2023-04-18T12:47:44.498Z,1.90
2023-04-18T12:50:31.586Z,5.72
2023-04-18T12:53:17.901Z,1.95
2023-04-18T12:56:04.259Z,1.30
2023-04-18T12:58:50.890Z,1.33
2023-04-18T13:01:37.147Z,0.98
2023-04-18T13:04:23.337Z,0.93
2023-04-18T13:07:09.376Z,9.00
2023-04-18T13:09:55.578Z,3.05
2023-04-18T13:12:41.780Z,1.10
2023-04-18T13:15:27.988Z,1.65
2023-04-18T13:18:14.181Z,2.75
2023-04-18T13:21:00.295Z,2.40
2023-04-18T13:24:05.562Z,1.42
2023-04-18T13:26:54.361Z,1.50
2023-04-18T13:29:41.720Z,1.70
2023-04-18T13:32:27.965Z,1.08
2023-04-18T13:35:14.233Z,1.38
2023-04-18T13:38:00.559Z,2.15
2023-04-18T13:40:46.730Z,0.93
2023-04-18T13:43:32.825Z,0.30
2023-04-18T13:46:19.072Z,0.73
2023-04-18T13:49:05.261Z,1.20
2023-04-18T13:51:53.611Z,1.17
2023-04-18T13:54:41.469Z,1.90
2023-04-18T13:57:28.601Z,1.65
2023-04-18T14:00:15.429Z,3.35
2023-04-18T14:03:02.943Z,2.08
2023-04-18T14:05:49.517Z,0.90
2023-04-18T14:08:35.824Z,1.45
2023-04-18T14:11:23.201Z,1.10
2023-04-18T14:14:09.411Z,1.55
2023-04-18T14:16:55.768Z,2.05
2023-04-18T14:19:42.003Z,2.38
2023-04-18T14:26:09.213Z,1.40
2023-04-18T14:29:01.249Z,1.92
2023-04-18T14:31:47.703Z,1.27
2023-04-18T14:34:35.303Z,1.00
2023-04-18T14:37:22.635Z,1.40
2023-04-18T14:40:09.883Z,1.13
2023-04-18T14:43:02.597Z,1.40
2023-04-18T14:46:11.329Z,1.40
2023-04-18T14:48:57.868Z,1.55
2023-04-18T14:51:48.497Z,0.73
2023-04-18T14:54:34.916Z,1.65
2023-04-18T15:01:01.325Z,0.75
2023-04-18T15:03:50.341Z,0.90
2023-04-18T15:06:37.109Z,1.08
2023-04-18T15:09:42.101Z,0.50
2023-04-18T15:12:29.573Z,0.40
2023-04-18T15:15:16.320Z,1.30
2023-04-18T15:18:02.894Z,2.10
2023-04-18T15:20:49.233Z,1.65
2023-04-18T15:23:36.175Z,1.35
2023-04-18T15:26:22.380Z,1.08
2023-04-18T15:29:11.532Z,3.55
2023-04-18T15:31:57.697Z,3.20
2023-04-18T15:34:43.884Z,0.50
2023-04-18T15:37:30.032Z,2.70
2023-04-18T15:40:16.611Z,1.13
2023-04-18T15:43:03.272Z,1.50
2023-04-18T15:45:49.298Z,1.25
2023-04-18T15:48:36.570Z,4.60
2023-04-18T15:51:27.639Z,2.92
2023-04-18T15:54:14.251Z,0.35
2023-04-18T15:57:00.524Z,0.50
2023-04-18T15:59:46.721Z,1.08
2023-04-18T16:02:32.892Z,1.13
2023-04-18T16:05:19.131Z,0.50
2023-04-18T16:08:07.546Z,0.82
2023-04-18T16:10:54.090Z,0.75
2023-04-18T16:13:43.333Z,0.40
2023-04-18T16:16:30.314Z,3.40
2023-04-18T16:19:17.053Z,13.65
2023-04-18T16:22:04.048Z,5.28
2023-04-18T16:24:50.943Z,1.65
2023-04-18T16:27:37.647Z,0.40
2023-04-18T16:30:23.659Z,0.45
2023-04-18T16:33:09.969Z,1.75
2023-04-18T16:36:01.203Z,1.35
2023-04-18T16:38:50.290Z,1.90
2023-04-18T16:41:42.813Z,0.55
2023-04-18T16:44:29.363Z,0.52
2023-04-18T16:47:15.572Z,0.30
2023-04-18T16:50:01.883Z,0.82
2023-04-18T16:52:48.209Z,0.40
2023-04-18T16:55:34.348Z,0.40
2023-04-18T16:58:21.288Z,0.60
2023-04-18T17:01:10.051Z,2.15
2023-04-18T17:03:56.412Z,0.52
2023-04-18T17:06:45.058Z,0.50
2023-04-18T17:09:31.719Z,1.40
2023-04-18T17:12:17.606Z,0.38
2023-04-18T17:15:04.141Z,0.60
2023-04-18T17:17:50.924Z,0.95
2023-04-18T17:20:37.353Z,0.35
2023-04-18T17:23:24.155Z,0.30
2023-04-18T17:26:10.216Z,0.50
2023-04-18T17:28:56.406Z,0.82
2023-04-18T17:31:42.775Z,0.50
2023-04-18T17:34:31.586Z,0.70
2023-04-18T17:37:17.900Z,1.45
2023-04-18T17:40:25.464Z,3.13
2023-04-18T17:43:31.101Z,1.23
2023-04-18T17:46:17.157Z,2.08
2023-04-18T17:49:04.438Z,0.45
2023-04-18T17:51:50.597Z,0.55
2023-04-18T17:54:37.002Z,0.40
2023-04-18T17:57:23.702Z,2.33
2023-04-18T18:00:11.301Z,1.70
2023-04-18T18:03:01.918Z,2.10
2023-04-18T18:05:49.842Z,3.13
2023-04-18T18:08:36.156Z,0.40
2023-04-18T18:11:23.218Z,0.32
2023-04-18T18:14:09.320Z,0.43
2023-04-18T18:16:56.200Z,0.30
2023-04-18T18:19:42.266Z,2.78
2023-04-18T18:22:28.529Z,1.60
2023-04-18T18:25:15.278Z,1.05
2023-04-18T18:28:03.460Z,0.65
2023-04-18T18:30:49.588Z,2.47
2023-04-18T18:33:35.962Z,1.88
2023-04-18T18:36:22.114Z,0.85
2023-04-18T18:39:08.383Z,5.38
2023-04-18T18:41:54.751Z,0.88
2023-04-18T18:44:41.206Z,1.80
2023-04-18T18:47:27.307Z,2.45
2023-04-18T18:50:13.851Z,0.73
2023-04-18T18:53:01.933Z,1.15
2023-04-18T18:55:48.153Z,0.45
2023-04-18T18:58:34.641Z,0.50
2023-04-18T19:01:20.917Z,0.45
2023-04-18T19:04:08.019Z,2.50
2023-04-18T19:06:55.664Z,0.40
2023-04-18T19:09:41.926Z,1.00
2023-04-18T19:12:29.215Z,0.52
2023-04-18T19:15:15.608Z,0.63
2023-04-18T19:18:01.926Z,1.00
2023-04-18T19:20:49.638Z,0.40
2023-04-18T19:23:36.148Z,0.60
2023-04-18T19:26:23.193Z,0.52
2023-04-18T19:29:10.475Z,0.50
2023-04-18T19:31:57.322Z,5.43
2023-04-18T19:34:43.284Z,4.18
2023-04-18T19:37:29.711Z,1.52
2023-04-18T19:40:15.978Z,14.65
2023-04-18T19:43:02.141Z,1.25
2023-04-18T19:45:48.474Z,0.70
2023-04-18T19:48:34.889Z,5.70
2023-04-18T19:51:21.027Z,8.75
2023-04-18T19:54:07.468Z,2.55
2023-04-18T19:56:53.604Z,23.13
2023-04-18T19:59:41.410Z,4.43
2023-04-18T20:02:27.489Z,52.13
2023-04-18T20:05:32.531Z,9.27
2023-04-18T20:08:18.668Z,35.03
2023-04-18T20:11:07.211Z,29.50
2023-04-18T20:13:55.419Z,61.95
2023-04-18T20:16:42.899Z,16.48
2023-04-18T20:19:29.894Z,14.23
2023-04-18T20:22:16.487Z,40.85
2023-04-18T20:25:02.986Z,64.03
2023-04-18T20:27:49.263Z,70.28
2023-04-18T20:30:36.948Z,41.05
2023-04-18T20:33:23.026Z,31.92
2023-04-18T20:36:09.218Z,3.20
2023-04-18T20:38:55.486Z,4.75
2023-04-18T20:41:48.620Z,23.65
2023-04-18T20:44:36.177Z,29.98
2023-04-18T20:47:22.610Z,7.43
2023-04-18T20:50:09.638Z,37.35
2023-04-18T20:52:55.745Z,47.35
2023-04-18T20:55:41.985Z,31.42
2023-04-18T20:58:28.997Z,21.08
2023-04-18T21:01:15.958Z,46.22
2023-04-18T21:04:02.937Z,32.92
2023-04-18T21:06:49.626Z,201.98
2023-04-18T21:09:38.930Z,136.63
2023-04-18T21:12:24.917Z,45.53
2023-04-18T21:15:11.409Z,28.40
2023-04-18T21:17:57.444Z,142.10
2023-04-18T21:20:44.070Z,43.22
2023-04-18T21:23:30.506Z,2.92
2023-04-18T21:26:16.834Z,66.68
2023-04-18T21:29:04.871Z,35.45
2023-04-18T21:31:51.779Z,2.25
2023-04-18T21:34:37.871Z,17.73
2023-04-18T21:37:24.915Z,5.95
2023-04-18T21:40:13.356Z,10.38
2023-04-18T21:42:59.791Z,9.80
2023-04-18T21:46:04.613Z,6.50
2023-04-18T21:48:50.725Z,2.85
2023-04-18T21:51:36.873Z,4.55
2023-04-18T21:54:23.092Z,4.88
2023-04-18T21:57:09.194Z,1.27
2023-04-18T21:59:57.083Z,3.50
2023-04-18T22:02:43.318Z,3.78
2023-04-18T22:05:29.714Z,1.75
2023-04-18T22:08:16.368Z,7.07
2023-04-18T22:11:02.708Z,0.50
2023-04-18T22:13:50.222Z,4.47
2023-04-18T22:16:36.071Z,0.77
2023-04-18T22:19:22.459Z,0.52
2023-04-18T22:22:08.369Z,1.55
2023-04-18T22:24:54.652Z,0.85
2023-04-18T22:27:40.936Z,3.70
2023-04-18T22:30:27.117Z,0.65
2023-04-18T22:33:13.501Z,1.20
2023-04-18T22:35:59.577Z,4.13
2023-04-18T22:38:45.826Z,3.85
2023-04-18T22:41:32.124Z,3.65
2023-04-18T22:44:18.385Z,0.50
2023-04-18T22:47:04.672Z,1.75
2023-04-18T22:49:51.892Z,0.40
2023-04-18T22:52:38.020Z,0.40
2023-04-18T22:55:24.322Z,3.38
2023-04-18T22:58:11.333Z,1.83
2023-04-18T23:00:57.858Z,0.93
2023-04-18T23:03:44.332Z,1.30
2023-04-18T23:06:31.673Z,5.40
2023-04-18T23:09:19.803Z,1.05
2023-04-18T23:12:05.933Z,10.45
2023-04-18T23:14:54.943Z,9.43
2023-04-18T23:17:41.248Z,13.55
2023-04-18T23:20:27.940Z,1.50
2023-04-18T23:23:14.278Z,1.65
2023-04-18T23:26:00.820Z,10.60
2023-04-18T23:28:46.912Z,26.45
2023-04-18T23:31:33.209Z,26.08
2023-04-18T23:34:19.294Z,20.80
2023-04-18T23:37:05.449Z,11.43
2023-04-18T23:39:51.799Z,10.13
2023-04-18T23:42:38.373Z,3.70
2023-04-18T23:45:24.815Z,1.75
2023-04-18T23:48:11.479Z,10.90
2023-04-18T23:50:57.733Z,0.82
2023-04-18T23:53:44.280Z,0.68
2023-04-18T23:56:30.845Z,8.95
2023-04-18T23:59:16.932Z,1.10
